createdAt,value
2023-06-04T00:00:29.615Z,96671.94
2023-06-04T00:02:58.793Z,96663.72
2023-06-04T00:05:27.932Z,96669.38
2023-06-04T00:07:57.208Z,96672.38
2023-06-04T00:10:26.332Z,96668.63
2023-06-04T00:12:55.399Z,96665.41
2023-06-04T00:15:26.030Z,96655.97
2023-06-04T00:17:55.233Z,96665.91
2023-06-04T00:20:24.582Z,96663.84
2023-06-04T00:22:53.735Z,96666.31
2023-06-04T00:25:22.861Z,96654.34
2023-06-04T00:27:53.432Z,96658.31
2023-06-04T00:30:22.510Z,96652.38
2023-06-04T00:32:53.158Z,96653.13
2023-06-04T00:35:22.748Z,96658.81
2023-06-04T00:37:51.873Z,96663.53
2023-06-04T00:40:21.016Z,96653.59
2023-06-04T00:42:50.528Z,96659.84
2023-06-04T00:45:21.348Z,96657.56
2023-06-04T00:47:50.546Z,96653.09
2023-06-04T00:50:22.039Z,96653.59
2023-06-04T00:52:52.546Z,96659.06
2023-06-04T00:55:22.118Z,96655.56
2023-06-04T00:57:51.154Z,96652.53
2023-06-04T01:00:20.899Z,96659.25
2023-06-04T01:02:54.675Z,96660.47
2023-06-04T01:05:35.974Z,96658.50
2023-06-04T01:08:06.832Z,96652.25
2023-06-04T01:10:35.966Z,96653.50
2023-06-04T01:13:05.123Z,96660.94
2023-06-04T01:15:34.279Z,96660.00
2023-06-04T01:18:06.434Z,96654.66
2023-06-04T01:20:42.625Z,96656.94
2023-06-04T01:23:21.857Z,96661.09
2023-06-04T01:25:53.226Z,96658.38
2023-06-04T01:28:22.897Z,96654.88
2023-06-04T01:30:52.980Z,96656.63
2023-06-04T01:33:22.326Z,96647.13
2023-06-04T01:35:53.111Z,96649.09
2023-06-04T01:38:22.300Z,96650.66
2023-06-04T01:40:51.886Z,96643.16
2023-06-04T01:43:20.894Z,96645.91
2023-06-04T01:45:50.343Z,96646.38
2023-06-04T01:48:19.487Z,96642.41
2023-06-04T01:50:48.518Z,96647.13
2023-06-04T01:53:19.059Z,96643.56
2023-06-04T01:55:50.252Z,96643.31
2023-06-04T01:58:27.952Z,96648.31
2023-06-04T02:00:57.244Z,96638.81
2023-06-04T02:03:26.783Z,96648.22
2023-06-04T02:05:55.955Z,96643.03
2023-06-04T02:08:26.851Z,96649.75
2023-06-04T02:10:55.909Z,96645.09
2023-06-04T02:13:24.985Z,96644.53
2023-06-04T02:15:54.056Z,96642.53
2023-06-04T02:18:23.885Z,96650.97
2023-06-04T02:20:53.522Z,96650.47
2023-06-04T02:23:22.939Z,96655.66
2023-06-04T02:25:53.415Z,96655.84
2023-06-04T02:28:22.700Z,96649.91
2023-06-04T02:30:51.730Z,96644.91
2023-06-04T02:33:21.935Z,96644.66
2023-06-04T02:35:51.898Z,96645.88
2023-06-04T02:38:21.093Z,96654.84
2023-06-04T02:40:50.291Z,96657.03
2023-06-04T02:43:21.827Z,96655.09
2023-06-04T02:45:51.032Z,96657.28
2023-06-04T02:48:20.081Z,96650.31
2023-06-04T02:50:49.370Z,96649.97
2023-06-04T02:53:18.397Z,96652.97
2023-06-04T02:55:47.492Z,96648.41
2023-06-04T02:58:17.409Z,96649.63
2023-06-04T03:00:48.201Z,96648.06
2023-06-04T03:03:17.617Z,96651.75
2023-06-04T03:05:47.424Z,96649.53
2023-06-04T03:08:16.822Z,96649.25
2023-06-04T03:10:45.866Z,96657.94
2023-06-04T03:13:16.317Z,96658.69
2023-06-04T03:15:45.977Z,96654.38
2023-06-04T03:18:16.567Z,96657.88
2023-06-04T03:20:45.616Z,96660.13
2023-06-04T03:23:15.201Z,96665.13
2023-06-04T03:25:44.214Z,96651.94
2023-06-04T03:28:13.364Z,96658.16
2023-06-04T03:30:43.016Z,96654.25
2023-06-04T03:33:12.725Z,96655.13
2023-06-04T03:35:43.750Z,96650.63
2023-06-04T03:38:12.882Z,96643.84
2023-06-04T03:40:43.471Z,96651.59
2023-06-04T03:43:13.170Z,96650.56
2023-06-04T03:45:44.349Z,96663.00
2023-06-04T03:48:14.342Z,96657.00
2023-06-04T03:50:47.275Z,96659.75
2023-06-04T03:53:17.586Z,96654.53
2023-06-04T03:55:46.981Z,96656.47
2023-06-04T03:58:16.094Z,96657.97
2023-06-04T04:00:49.603Z,96658.63
2023-06-04T04:03:19.042Z,96660.41
2023-06-04T04:05:50.084Z,96656.84
2023-06-04T04:08:19.174Z,96654.09
2023-06-04T04:10:48.283Z,96650.63
2023-06-04T04:13:17.941Z,96658.53
2023-06-04T04:15:46.997Z,96657.50
2023-06-04T04:18:18.128Z,96660.69
2023-06-04T04:20:49.102Z,96658.44
2023-06-04T04:23:18.580Z,96647.13
2023-06-04T04:25:49.963Z,96658.06
2023-06-04T04:28:20.229Z,96650.44
2023-06-04T04:30:50.783Z,96651.38
2023-06-04T04:33:20.174Z,96656.06
2023-06-04T04:35:51.456Z,96654.41
2023-06-04T04:38:25.184Z,96658.38
2023-06-04T04:41:02.720Z,96664.56
2023-06-04T04:43:33.385Z,96660.34
2023-06-04T04:46:08.878Z,96657.13
2023-06-04T04:48:39.798Z,96663.34
2023-06-04T04:51:10.367Z,96656.84
2023-06-04T04:53:40.047Z,96663.53
2023-06-04T04:56:09.193Z,96665.13
2023-06-04T04:58:43.122Z,96658.38
2023-06-04T05:01:12.557Z,96664.09
2023-06-04T05:03:43.501Z,96658.06
2023-06-04T05:06:16.813Z,96656.84
2023-06-04T05:08:46.628Z,96658.81
2023-06-04T05:11:17.481Z,96657.63
2023-06-04T05:13:48.139Z,96661.38
2023-06-04T05:16:17.596Z,96663.63
2023-06-04T05:18:48.388Z,96664.56
2023-06-04T05:21:23.525Z,96669.84
2023-06-04T05:23:58.404Z,96662.41
2023-06-04T05:26:34.222Z,96673.59
2023-06-04T05:29:08.792Z,96671.94
2023-06-04T05:31:42.369Z,96670.66
2023-06-04T05:34:17.713Z,96667.72
2023-06-04T05:36:49.214Z,96671.25
2023-06-04T05:39:19.962Z,96671.06
2023-06-04T05:41:55.808Z,96670.78
2023-06-04T05:44:24.903Z,96673.53
2023-06-04T05:46:54.178Z,96680.78
2023-06-04T05:49:25.928Z,96669.56
2023-06-04T05:51:58.175Z,96679.06
2023-06-04T05:54:28.093Z,96683.22
2023-06-04T05:56:57.579Z,96683.22
2023-06-04T05:59:26.860Z,96681.03
2023-06-04T06:01:56.290Z,96689.72
2023-06-04T06:04:27.407Z,96693.69
2023-06-04T06:06:58.630Z,96692.72
2023-06-04T06:09:27.902Z,96697.44
2023-06-04T06:11:57.134Z,96694.72
2023-06-04T06:14:26.395Z,96694.72
2023-06-04T06:16:56.189Z,96706.41
2023-06-04T06:19:25.899Z,96700.97
2023-06-04T06:21:55.013Z,96694.75
2023-06-04T06:24:25.620Z,96706.50
2023-06-04T06:26:54.962Z,96707.75
2023-06-04T06:29:24.515Z,96703.72
2023-06-04T06:31:54.780Z,96703.03
2023-06-04T06:34:23.863Z,96709.25
2023-06-04T06:36:52.893Z,96714.25
2023-06-04T06:39:22.096Z,96709.03
2023-06-04T06:41:52.704Z,96707.06
2023-06-04T06:44:26.200Z,96714.78
2023-06-04T06:46:55.309Z,96713.56
2023-06-04T06:49:24.473Z,96715.81
2023-06-04T06:51:53.518Z,96717.31
2023-06-04T06:54:23.240Z,96712.59
2023-06-04T06:56:53.685Z,96715.63
2023-06-04T06:59:22.748Z,96719.84
2023-06-04T07:01:52.149Z,96720.09
2023-06-04T07:04:21.707Z,96718.59
2023-06-04T07:06:50.823Z,96719.84
2023-06-04T07:09:19.874Z,96725.84
2023-06-04T07:11:48.925Z,96722.84
2023-06-04T07:14:19.452Z,96718.88
2023-06-04T07:16:48.649Z,96723.09
2023-06-04T07:19:17.733Z,96727.34
2023-06-04T07:21:47.120Z,96731.84
2023-06-04T07:24:16.276Z,96732.63
2023-06-04T07:26:45.339Z,96727.88
2023-06-04T07:29:14.615Z,96731.66
2023-06-04T07:31:45.092Z,96732.19
2023-06-04T07:34:14.183Z,96724.47
2023-06-04T07:36:43.254Z,96724.00
2023-06-04T07:39:12.318Z,96722.28
2023-06-04T07:41:41.377Z,96719.47
2023-06-04T07:44:10.631Z,96715.78
2023-06-04T07:46:39.839Z,96719.03
2023-06-04T07:49:10.635Z,96716.31
2023-06-04T07:51:39.704Z,96717.31
2023-06-04T07:54:08.785Z,96721.28
2023-06-04T07:56:38.051Z,96717.88
2023-06-04T07:59:07.104Z,96721.34
2023-06-04T08:01:36.221Z,96727.59
2023-06-04T08:04:05.409Z,96722.59
2023-06-04T08:06:36.583Z,96727.84
2023-06-04T08:09:05.789Z,96725.38
2023-06-04T08:11:34.889Z,96730.13
2023-06-04T08:14:04.073Z,96732.38
2023-06-04T08:16:34.438Z,96735.09
2023-06-04T08:19:03.538Z,96735.38
2023-06-04T08:21:32.586Z,96733.38
2023-06-04T08:24:03.674Z,96735.94
2023-06-04T08:26:33.639Z,96739.41
2023-06-04T08:29:05.689Z,96732.69
2023-06-04T08:31:35.266Z,96731.47
2023-06-04T08:34:06.354Z,96729.22
2023-06-04T08:36:36.183Z,96725.50
2023-06-04T08:39:06.797Z,96727.78
2023-06-04T08:41:44.752Z,96725.50
2023-06-04T08:44:14.757Z,96728.53
2023-06-04T08:46:46.431Z,96726.06
2023-06-04T08:49:16.310Z,96725.56
2023-06-04T08:51:45.454Z,96722.84
2023-06-04T08:54:16.621Z,96723.59
2023-06-04T08:56:48.293Z,96724.63
2023-06-04T08:59:18.566Z,96723.38
2023-06-04T09:01:47.843Z,96724.88
2023-06-04T09:04:17.662Z,96725.63
2023-06-04T09:06:47.772Z,96724.41
2023-06-04T09:09:21.169Z,96728.63
2023-06-04T09:11:56.005Z,96725.41
2023-06-04T09:14:25.714Z,96731.66
2023-06-04T09:16:56.677Z,96725.66
2023-06-04T09:19:25.835Z,96734.63
2023-06-04T09:21:56.690Z,96738.88
2023-06-04T09:24:41.601Z,96740.84
2023-06-04T09:27:14.959Z,96737.63
2023-06-04T09:29:52.539Z,96737.16
2023-06-04T09:32:24.663Z,96735.16
2023-06-04T09:34:54.169Z,96731.69
2023-06-04T09:37:24.317Z,96731.19
2023-06-04T09:39:58.268Z,96734.69
2023-06-04T09:42:27.366Z,96737.41
2023-06-04T09:44:56.435Z,96740.44
2023-06-04T09:47:26.795Z,96734.97
2023-06-04T09:49:55.949Z,96744.66
2023-06-04T09:52:35.512Z,96735.22
2023-06-04T09:55:19.818Z,96732.47
2023-06-04T09:57:50.346Z,96729.75
2023-06-04T10:00:22.054Z,96725.03
2023-06-04T10:02:52.676Z,96727.75
2023-06-04T10:05:23.134Z,96731.25
2023-06-04T10:07:54.002Z,96730.75
2023-06-04T10:10:29.116Z,96736.25
2023-06-04T10:13:06.746Z,96733.03
2023-06-04T10:15:38.311Z,96735.28
2023-06-04T10:18:08.336Z,96740.00
2023-06-04T10:20:37.457Z,96737.25
2023-06-04T10:23:08.963Z,96738.00
2023-06-04T10:25:39.752Z,96738.00
2023-06-04T10:28:08.967Z,96732.53
2023-06-04T10:30:38.008Z,96730.56
2023-06-04T10:33:07.235Z,96727.34
2023-06-04T10:35:38.265Z,96731.31
2023-06-04T10:38:11.922Z,96728.56
2023-06-04T10:40:43.164Z,96736.03
2023-06-04T10:43:14.240Z,96735.28
2023-06-04T10:45:44.138Z,96727.81
2023-06-04T10:48:15.987Z,96732.53
2023-06-04T10:50:52.426Z,96733.28
2023-06-04T10:53:22.992Z,96735.28
2023-06-04T10:55:53.535Z,96722.81
2023-06-04T10:58:22.621Z,96732.53
2023-06-04T11:00:51.790Z,96740.75
2023-06-04T11:03:22.176Z,96735.28
2023-06-04T11:05:51.780Z,96733.28
2023-06-04T11:08:30.526Z,96735.53
2023-06-04T11:11:01.032Z,96731.31
2023-06-04T11:13:30.851Z,96722.81
2023-06-04T11:15:59.962Z,96733.03
2023-06-04T11:18:29.080Z,96729.81
2023-06-04T11:21:02.224Z,96724.81
2023-06-04T11:23:31.502Z,96729.53
2023-06-04T11:26:03.268Z,96738.50
2023-06-04T11:28:32.486Z,96734.53
2023-06-04T11:31:04.225Z,96734.53
2023-06-04T11:33:44.778Z,96728.78
2023-06-04T11:36:24.897Z,96730.00
2023-06-04T11:38:58.748Z,96730.00
2023-06-04T11:41:32.663Z,96734.75
2023-06-04T11:44:05.914Z,96740.97
2023-06-04T11:46:37.140Z,96734.75
2023-06-04T11:49:06.399Z,96732.00
2023-06-04T11:51:35.815Z,96736.72
2023-06-04T11:54:05.413Z,96732.75
2023-06-04T11:56:36.051Z,96732.00
2023-06-04T11:59:05.746Z,96735.97
2023-06-04T12:01:35.044Z,96729.75
2023-06-04T12:04:14.272Z,96725.50
2023-06-04T12:06:53.747Z,96724.28
2023-06-04T12:09:23.786Z,96724.28
2023-06-04T12:12:00.401Z,96719.53
2023-06-04T12:14:30.121Z,96716.31
2023-06-04T12:17:00.555Z,96714.81
2023-06-04T12:19:30.643Z,96710.84
2023-06-04T12:22:04.645Z,96714.81
2023-06-04T12:24:36.241Z,96712.84
2023-06-04T12:27:09.378Z,96715.56
2023-06-04T12:29:38.430Z,96718.78
2023-06-04T12:32:12.431Z,96719.81
2023-06-04T12:34:42.701Z,96723.78
2023-06-04T12:37:11.700Z,96719.06
2023-06-04T12:39:40.702Z,96721.81
2023-06-04T12:42:11.651Z,96719.06
2023-06-04T12:44:42.074Z,96717.81
2023-06-04T12:47:11.226Z,96714.34
2023-06-04T12:49:40.513Z,96715.84
2023-06-04T12:52:09.599Z,96721.31
2023-06-04T12:54:38.618Z,96715.09
2023-06-04T12:57:07.973Z,96723.56
2023-06-04T12:59:38.735Z,96713.84
2023-06-04T13:02:08.017Z,96710.38
2023-06-04T13:04:37.212Z,96711.88
2023-06-04T13:07:06.462Z,96701.66
2023-06-04T13:09:36.255Z,96702.41
2023-06-04T13:12:07.051Z,96705.91
2023-06-04T13:14:36.095Z,96705.16
2023-06-04T13:17:17.923Z,96705.91
2023-06-04T13:19:50.951Z,96706.66
2023-06-04T13:22:20.090Z,96706.16
2023-06-04T13:24:49.189Z,96707.66
2023-06-04T13:27:18.249Z,96706.91
2023-06-04T13:29:47.320Z,96710.38
2023-06-04T13:32:17.900Z,96709.63
2023-06-04T13:34:47.099Z,96706.91
2023-06-04T13:37:16.320Z,96705.66
2023-06-04T13:39:45.452Z,96713.13
2023-06-04T13:42:14.618Z,96706.41
2023-06-04T13:44:43.659Z,96709.91
2023-06-04T13:47:12.941Z,96704.44
2023-06-04T13:49:43.399Z,96713.41
2023-06-04T13:52:12.421Z,96712.16
2023-06-04T13:54:41.940Z,96697.22
2023-06-04T13:57:12.662Z,96696.00
2023-06-04T13:59:41.787Z,96699.97
2023-06-04T14:02:11.028Z,96694.00
2023-06-04T14:04:40.100Z,96697.50
2023-06-04T14:07:10.551Z,96690.78
2023-06-04T14:09:39.597Z,96697.75
2023-06-04T14:12:08.764Z,96688.78
2023-06-04T14:14:38.317Z,96680.59
2023-06-04T14:17:07.912Z,96679.34
2023-06-04T14:19:37.402Z,96684.06
2023-06-04T14:22:06.678Z,96670.38
2023-06-04T14:24:37.385Z,96680.09
2023-06-04T14:27:07.808Z,96672.63
2023-06-04T14:29:39.228Z,96678.09
2023-06-04T14:32:10.290Z,96665.16
2023-06-04T14:34:39.369Z,96674.13
2023-06-04T14:37:08.704Z,96664.69
2023-06-04T14:39:39.158Z,96663.94
2023-06-04T14:42:08.767Z,96674.41
2023-06-04T14:44:37.763Z,96666.94
2023-06-04T14:47:07.489Z,96669.66
2023-06-04T14:49:37.439Z,96661.44
2023-06-04T14:52:06.513Z,96663.72
2023-06-04T14:54:36.429Z,96663.72
2023-06-04T14:57:06.985Z,96656.25
2023-06-04T14:59:36.210Z,96655.50
2023-06-04T15:02:05.561Z,96648.78
2023-06-04T15:04:34.674Z,96652.25
2023-06-04T15:07:04.136Z,96648.78
2023-06-04T15:09:33.292Z,96651.03
2023-06-04T15:12:04.551Z,96650.28
2023-06-04T15:14:35.766Z,96647.03
2023-06-04T15:17:05.094Z,96657.22
2023-06-04T15:19:34.930Z,96652.50
2023-06-04T15:22:04.025Z,96647.78
2023-06-04T15:24:33.437Z,96644.56
2023-06-04T15:27:02.624Z,96649.28
2023-06-04T15:29:31.821Z,96640.31
2023-06-04T15:32:02.478Z,96644.56
2023-06-04T15:34:31.549Z,96652.00
2023-06-04T15:37:00.603Z,96639.81
2023-06-04T15:39:29.653Z,96644.56
2023-06-04T15:41:58.978Z,96649.53
2023-06-04T15:44:28.575Z,96646.06
2023-06-04T15:46:57.628Z,96645.31
2023-06-04T15:49:29.880Z,96641.31
2023-06-04T15:51:58.993Z,96641.31
2023-06-04T15:54:44.521Z,96637.34
2023-06-04T15:57:14.924Z,96644.06
2023-06-04T15:59:44.135Z,96644.81
2023-06-04T16:02:13.279Z,96638.09
2023-06-04T16:04:43.725Z,96638.84
2023-06-04T16:07:12.758Z,96645.06
2023-06-04T16:09:41.762Z,96636.09
2023-06-04T16:12:11.129Z,96630.63
2023-06-04T16:14:40.149Z,96630.63
2023-06-04T16:17:09.210Z,96638.09
2023-06-04T16:19:38.259Z,96629.38
2023-06-04T16:22:08.784Z,96634.13
2023-06-04T16:24:37.883Z,96643.09
2023-06-04T16:27:07.392Z,96633.38
2023-06-04T16:29:36.450Z,96636.84
2023-06-04T16:32:05.662Z,96625.91
2023-06-04T16:34:34.726Z,96628.63
2023-06-04T16:37:03.777Z,96626.66
2023-06-04T16:39:34.161Z,96628.63
2023-06-04T16:42:04.169Z,96635.63
2023-06-04T16:44:33.210Z,96632.13
2023-06-04T16:47:02.364Z,96628.16
2023-06-04T16:49:31.501Z,96632.13
2023-06-04T16:52:00.556Z,96632.88
2023-06-04T16:54:29.828Z,96628.16
2023-06-04T16:57:01.423Z,96636.38
2023-06-04T16:59:31.756Z,96630.13
2023-06-04T17:02:00.854Z,96627.41
2023-06-04T17:04:29.919Z,96630.13
2023-06-04T17:06:59.012Z,96626.91
2023-06-04T17:09:28.102Z,96634.38
2023-06-04T17:11:57.166Z,96636.38
2023-06-04T17:14:27.948Z,96633.16
2023-06-04T17:16:57.130Z,96623.44
2023-06-04T17:19:26.741Z,96624.66
2023-06-04T17:21:56.081Z,96622.69
2023-06-04T17:24:25.147Z,96626.16
2023-06-04T17:26:54.284Z,96622.19
2023-06-04T17:29:23.557Z,96626.16
2023-06-04T17:31:54.208Z,96617.94
2023-06-04T17:34:23.244Z,96621.44
2023-06-04T17:36:52.341Z,96623.44
2023-06-04T17:39:21.378Z,96628.91
2023-06-04T17:41:50.394Z,96626.91
2023-06-04T17:44:19.485Z,96623.44
2023-06-04T17:46:48.550Z,96628.91
2023-06-04T17:49:19.028Z,96631.66
2023-06-04T17:51:48.116Z,96630.88
2023-06-04T17:54:17.172Z,96627.41
2023-06-04T17:56:46.268Z,96631.66
2023-06-04T17:59:15.374Z,96630.13
2023-06-04T18:01:44.497Z,96639.84
2023-06-04T18:04:13.631Z,96634.88
2023-06-04T18:06:44.095Z,96635.63
2023-06-04T18:09:13.100Z,96638.34
2023-06-04T18:11:42.156Z,96640.34
2023-06-04T18:14:11.240Z,96640.34
2023-06-04T18:16:40.321Z,96639.59
2023-06-04T18:19:10.512Z,96645.81
2023-06-04T18:21:39.540Z,96641.84
2023-06-04T18:24:10.031Z,96645.06
2023-06-04T18:26:39.145Z,96645.06
2023-06-04T18:29:08.218Z,96645.06
2023-06-04T18:31:37.437Z,96643.56
2023-06-04T18:34:07.958Z,96648.31
2023-06-04T18:36:37.917Z,96651.03
2023-06-04T18:39:07.026Z,96650.28
2023-06-04T18:41:37.484Z,96653.03
2023-06-04T18:44:06.584Z,96650.28
2023-06-04T18:46:35.745Z,96650.28
2023-06-04T18:49:05.653Z,96651.53
2023-06-04T18:51:34.765Z,96655.78
2023-06-04T18:54:03.930Z,96657.75
2023-06-04T18:56:33.069Z,96653.50
2023-06-04T18:59:03.576Z,96651.53
2023-06-04T19:01:32.663Z,96650.03
2023-06-04T19:04:02.188Z,96652.00
2023-06-04T19:06:31.566Z,96656.75
2023-06-04T19:09:00.693Z,96659.47
2023-06-04T19:11:30.378Z,96656.75
2023-06-04T19:13:59.968Z,96656.75
2023-06-04T19:16:30.598Z,96662.72
2023-06-04T19:18:59.813Z,96655.03
2023-06-04T19:21:28.868Z,96657.75
2023-06-04T19:23:57.984Z,96660.50
2023-06-04T19:26:27.181Z,96654.28
2023-06-04T19:28:56.304Z,96662.75
2023-06-04T19:31:28.866Z,96668.97
2023-06-04T19:34:00.170Z,96666.72
2023-06-04T19:36:29.807Z,96668.22
2023-06-04T19:38:59.338Z,96669.47
2023-06-04T19:41:28.774Z,96676.19
2023-06-04T19:43:57.833Z,96673.44
2023-06-04T19:46:27.088Z,96678.16
2023-06-04T19:48:57.800Z,96675.91
2023-06-04T19:51:28.759Z,96678.66
2023-06-04T19:53:58.073Z,96687.63
2023-06-04T19:56:27.159Z,96684.88
2023-06-04T19:58:56.229Z,96692.84
2023-06-04T20:01:25.313Z,96697.06
2023-06-04T20:03:54.831Z,96699.59
2023-06-04T20:06:24.461Z,96703.78
2023-06-04T20:08:54.970Z,96711.78
2023-06-04T20:11:26.396Z,96720.22
2023-06-04T20:13:55.521Z,96709.78
2023-06-04T20:16:24.729Z,96717.00
2023-06-04T20:18:53.889Z,96724.47
2023-06-04T20:21:22.964Z,96722.25
2023-06-04T20:23:53.655Z,96728.22
2023-06-04T20:26:24.201Z,96722.47
2023-06-04T20:28:55.061Z,96732.13
2023-06-04T20:31:24.473Z,96727.63
2023-06-04T20:33:56.621Z,96730.56
2023-06-04T20:36:26.226Z,96727.84
2023-06-04T20:38:57.537Z,96737.03
2023-06-04T20:41:28.275Z,96737.78
2023-06-04T20:43:57.500Z,96739.75
2023-06-04T20:46:26.590Z,96736.78
2023-06-04T20:48:55.649Z,96739.25
2023-06-04T20:51:25.072Z,96733.78
2023-06-04T20:53:54.100Z,96737.00
2023-06-04T20:56:24.709Z,96737.00
2023-06-04T20:58:55.176Z,96737.47
2023-06-04T21:01:24.421Z,96738.72
2023-06-04T21:03:53.792Z,96747.94
2023-06-04T21:06:22.944Z,96750.41
2023-06-04T21:08:52.120Z,96754.19
2023-06-04T21:11:21.212Z,96746.19
2023-06-04T21:13:50.225Z,96744.19
2023-06-04T21:16:20.813Z,96749.94
2023-06-04T21:18:52.389Z,96749.94
2023-06-04T21:21:21.644Z,96750.69
2023-06-04T21:23:50.911Z,96755.69
2023-06-04T21:26:21.410Z,96753.69
2023-06-04T21:28:50.556Z,96748.69
2023-06-04T21:31:21.004Z,96753.44
2023-06-04T21:33:50.122Z,96758.16
2023-06-04T21:36:19.189Z,96753.91
2023-06-04T21:38:48.417Z,96751.66
2023-06-04T21:41:17.495Z,96759.13
2023-06-04T21:43:46.593Z,96762.34
2023-06-04T21:46:16.320Z,96761.59
2023-06-04T21:48:47.981Z,96755.34
2023-06-04T21:51:17.062Z,96751.88
2023-06-04T21:53:46.216Z,96751.59
2023-06-04T21:56:15.270Z,96746.13
2023-06-04T21:58:44.628Z,96752.81
2023-06-04T22:01:13.690Z,96745.84
2023-06-04T22:03:42.952Z,96750.56
2023-06-04T22:06:13.459Z,96758.03
2023-06-04T22:08:42.568Z,96753.56
2023-06-04T22:11:11.757Z,96754.03
2023-06-04T22:13:41.081Z,96760.47
2023-06-04T22:16:10.268Z,96747.25
2023-06-04T22:18:52.196Z,96752.72
2023-06-04T22:21:24.202Z,96750.75
2023-06-04T22:23:53.535Z,96755.03
2023-06-04T22:26:36.599Z,96757.81
2023-06-04T22:29:06.571Z,96756.59
2023-06-04T22:31:36.270Z,96761.09
2023-06-04T22:34:07.200Z,96754.88
2023-06-04T22:36:37.657Z,96761.59
2023-06-04T22:39:06.761Z,96757.13
2023-06-04T22:41:35.869Z,96764.09
2023-06-04T22:44:05.124Z,96759.88
2023-06-04T22:46:34.362Z,96761.38
2023-06-04T22:49:03.501Z,96761.38
2023-06-04T22:51:32.829Z,96761.84
2023-06-04T22:54:03.604Z,96761.84
2023-06-04T22:56:32.747Z,96759.88
2023-06-04T22:59:01.861Z,96766.84
2023-06-04T23:01:31.186Z,96770.06
2023-06-04T23:04:00.400Z,96770.06
2023-06-04T23:06:29.824Z,96761.59
2023-06-04T23:08:58.915Z,96764.59
2023-06-04T23:11:29.343Z,96768.56
2023-06-04T23:13:58.538Z,96771.28
2023-06-04T23:16:27.697Z,96768.56
2023-06-04T23:18:57.406Z,96767.81
2023-06-04T23:21:26.563Z,96768.56
2023-06-04T23:23:55.696Z,96768.28
2023-06-04T23:26:24.848Z,96773.00
2023-06-04T23:28:55.378Z,96779.72
2023-06-04T23:31:24.473Z,96773.00
2023-06-04T23:33:53.641Z,96767.53
2023-06-04T23:36:22.730Z,96771.78
2023-06-04T23:38:51.776Z,96772.25
2023-06-04T23:41:20.955Z,96772.75
2023-06-04T23:43:50.045Z,96770.00
2023-06-04T23:46:20.493Z,96776.72
2023-06-04T23:48:49.529Z,96762.28
2023-06-04T23:51:18.695Z,96772.94
2023-06-04T23:53:47.981Z,96765.22
2023-06-04T23:56:17.202Z,96765.22
2023-06-04T23:58:46.592Z,96761.25
